Time;durP1;ratioP1;P1;durP2;ratioP2;P2;SDS_P1;SDS_P2;PMS_P1;PMS_P2;Temp;Humidity;BMP_temperature;BMP_pressure;BME280_temperature;BME280_humidity;BME280_pressure;Samples;Min_cycle;Max_cycle;Signal;HPM_P1;HPM_P2
2021/05/13 00:01:21;;;;;;;5.10;4.60;;;10.90;99.90;;;;;;5058335;28;20564;-44
2021/05/13 00:03:47;;;;;;;5.10;4.10;;;10.90;99.90;;;;;;5059027;28;20194;-44
2021/05/13 00:06:13;;;;;;;4.50;4.10;;;10.90;99.90;;;;;;5058676;28;20405;-44
2021/05/13 00:08:38;;;;;;;5.30;3.87;;;10.90;99.90;;;;;;5058220;28;20483;-45
2021/05/13 00:11:05;;;;;;;8.00;5.23;;;10.90;99.90;;;;;;5058817;28;20476;-44
2021/05/13 00:13:33;;;;;;;4.50;4.10;;;10.90;99.90;;;;;;5059108;28;20185;-44
2021/05/13 00:15:59;;;;;;;4.67;4.23;;;10.90;99.90;;;;;;5058996;28;20405;-44
2021/05/13 00:18:26;;;;;;;5.30;4.80;;;10.90;99.90;;;;;;5058838;28;20432;-45
2021/05/13 00:20:53;;;;;;;6.63;4.67;;;10.90;99.90;;;;;;5058606;28;20413;-44
2021/05/13 00:23:19;;;;;;;5.70;4.30;;;10.90;99.90;;;;;;5058484;28;20484;-44
2021/05/13 00:25:47;;;;;;;5.70;4.50;;;10.80;99.90;;;;;;5059016;28;20424;-44
2021/05/13 00:28:13;;;;;;;5.93;4.57;;;10.80;99.90;;;;;;5057972;28;20557;-45
2021/05/13 00:30:39;;;;;;;4.90;4.47;;;10.80;99.90;;;;;;5058572;28;20424;-44
2021/05/13 00:33:05;;;;;;;5.40;4.73;;;10.80;99.90;;;;;;5058645;28;20452;-44
2021/05/13 00:35:30;;;;;;;5.00;4.20;;;10.80;99.90;;;;;;5058647;28;20257;-44
2021/05/13 00:37:56;;;;;;;7.27;4.43;;;10.80;99.90;;;;;;5058776;28;20427;-44
2021/05/13 00:40:22;;;;;;;5.80;4.70;;;10.80;99.90;;;;;;5058511;28;20174;-44
2021/05/13 00:42:49;;;;;;;4.77;4.10;;;10.80;99.90;;;;;;5058336;28;20228;-44
2021/05/13 00:45:15;;;;;;;4.87;4.37;;;10.80;99.90;;;;;;5058207;28;20710;-44
2021/05/13 00:48:16;;;;;;;6.33;4.30;;;10.70;99.90;;;;;;5058018;28;20459;-44
2021/05/13 00:50:34;;;;;;;5.50;4.27;;;10.70;99.90;;;;;;5056824;28;20490;-45
2021/05/13 00:53:08;;;;;;;5.87;4.63;;;10.70;99.90;;;;;;5058311;28;20408;-44
2021/05/13 00:55:34;;;;;;;5.27;4.60;;;10.70;99.90;;;;;;5058604;28;20412;-45
2021/05/13 00:58:01;;;;;;;4.63;4.20;;;10.60;99.90;;;;;;5058167;28;20473;-44
2021/05/13 01:02:55;;;;;;;5.53;4.50;;;10.60;99.90;;;;;;5058419;28;20511;-44
2021/05/13 01:05:22;;;;;;;8.50;5.17;;;10.50;99.90;;;;;;5058426;28;20423;-44
2021/05/13 01:07:48;;;;;;;5.30;4.80;;;10.50;99.90;;;;;;5057450;28;20490;-44
2021/05/13 01:10:14;;;;;;;5.93;5.17;;;10.50;99.90;;;;;;5057902;28;20559;-42
2021/05/13 01:12:41;;;;;;;5.73;5.23;;;10.40;99.90;;;;;;5057575;28;20834;-45
2021/05/13 01:15:20;;;;;;;5.60;5.07;;;10.40;99.90;;;;;;5057991;28;20431;-44
2021/05/13 01:17:58;;;;;;;7.37;4.90;;;10.40;99.90;;;;;;5057617;28;20697;-44
2021/05/13 01:20:26;;;;;;;5.40;4.50;;;10.30;99.90;;;;;;5057696;28;20412;-44
2021/05/13 01:22:54;;;;;;;6.07;4.87;;;10.30;99.90;;;;;;5057417;28;20484;-44
2021/05/13 01:25:19;;;;;;;4.87;4.37;;;10.30;99.90;;;;;;5057436;28;20418;-45
2021/05/13 01:27:45;;;;;;;5.93;4.60;;;10.20;99.90;;;;;;5057859;28;20834;-45
2021/05/13 01:30:11;;;;;;;5.10;4.60;;;10.20;99.90;;;;;;5057699;28;20187;-44
2021/05/13 01:32:37;;;;;;;6.20;5.10;;;10.20;99.90;;;;;;5057401;28;20174;-44
2021/05/13 01:35:03;;;;;;;6.23;4.87;;;10.10;99.90;;;;;;5057434;28;20779;-45
2021/05/13 01:37:29;;;;;;;6.10;5.30;;;10.20;99.90;;;;;;5057172;28;20213;-45
2021/05/13 01:39:55;;;;;;;5.80;5.10;;;10.20;99.90;;;;;;5057164;28;20459;-43
2021/05/13 01:42:20;;;;;;;5.30;4.70;;;10.10;99.90;;;;;;5057202;28;20174;-44
2021/05/13 01:44:46;;;;;;;6.70;4.40;;;10.10;99.90;;;;;;5057494;28;20192;-44
2021/05/13 01:47:12;;;;;;;5.77;5.07;;;10.20;99.90;;;;;;5057236;28;20229;-44
2021/05/13 01:49:39;;;;;;;5.13;4.70;;;10.20;99.90;;;;;;5057259;28;20436;-44
2021/05/13 01:52:04;;;;;;;5.77;5.27;;;10.10;99.90;;;;;;5056928;28;20173;-45
2021/05/13 01:54:30;;;;;;;7.50;5.30;;;10.10;99.90;;;;;;5057321;28;20428;-44
2021/05/13 01:57:06;;;;;;;5.70;4.50;;;10.10;99.90;;;;;;5057031;28;20178;-45
2021/05/13 01:59:32;;;;;;;5.80;5.10;;;10.10;99.90;;;;;;5058021;28;20169;-44
2021/05/13 02:01:59;;;;;;;5.87;5.27;;;10.10;99.90;;;;;;5058755;28;20431;-44
2021/05/13 02:04:25;;;;;;;6.10;5.50;;;10.10;99.90;;;;;;5057693;28;20424;-43
2021/05/13 02:06:51;;;;;;;5.60;5.03;;;10.10;99.90;;;;;;5057116;28;20463;-43
2021/05/13 02:09:17;;;;;;;5.83;4.93;;;10.00;99.90;;;;;;5056143;28;20448;-44
2021/05/13 02:11:42;;;;;;;5.50;4.87;;;9.90;99.90;;;;;;5056430;28;20166;-44
2021/05/13 02:14:08;;;;;;;5.43;4.93;;;9.90;99.90;;;;;;5057205;28;20177;-44
2021/05/13 02:16:34;;;;;;;5.50;5.00;;;9.90;99.90;;;;;;5057111;28;20426;-43
2021/05/13 02:19:00;;;;;;;9.90;4.90;;;9.80;99.90;;;;;;5056886;28;20488;-44
2021/05/13 02:21:25;;;;;;;4.90;4.23;;;9.70;99.90;;;;;;5056812;28;20185;-44
2021/05/13 02:23:51;;;;;;;6.00;5.50;;;9.70;99.90;;;;;;5057119;28;20220;-43
2021/05/13 02:26:20;;;;;;;6.03;4.97;;;9.70;99.90;;;;;;5057252;28;20200;-44
2021/05/13 02:28:46;;;;;;;8.50;4.63;;;9.60;99.90;;;;;;5056480;28;20205;-43
2021/05/13 02:31:12;;;;;;;4.93;4.47;;;9.60;99.90;;;;;;5056879;28;20442;-44
2021/05/13 02:33:37;;;;;;;5.70;5.13;;;9.50;99.90;;;;;;5056747;28;20436;-44
2021/05/13 02:36:04;;;;;;;6.57;4.80;;;9.40;99.90;;;;;;5056924;28;20568;-44
2021/05/13 02:38:29;;;;;;;4.80;4.30;;;9.40;99.90;;;;;;5057100;28;20182;-44
2021/05/13 02:40:55;;;;;;;9.23;5.40;;;9.40;99.90;;;;;;5057260;28;20443;-45
2021/05/13 02:43:21;;;;;;;7.57;4.37;;;9.30;99.90;;;;;;5056205;28;20186;-44
2021/05/13 02:45:47;;;;;;;4.83;4.43;;;9.30;99.90;;;;;;5055674;28;20178;-44
2021/05/13 02:48:12;;;;;;;5.77;4.50;;;9.20;99.90;;;;;;5057639;28;20482;-44
2021/05/13 02:50:38;;;;;;;5.20;4.80;;;9.10;99.90;;;;;;5060087;28;20170;-44
2021/05/13 02:53:04;;;;;;;5.90;4.50;;;9.10;99.90;;;;;;5060775;28;20296;-44
2021/05/13 02:55:30;;;;;;;7.03;4.90;;;9.00;99.90;;;;;;5060211;28;20169;-44
2021/05/13 02:57:58;;;;;;;5.13;4.63;;;8.90;99.90;;;;;;5060952;28;20201;-44
2021/05/13 03:00:28;;;;;;;6.40;5.50;;;8.90;99.90;;;;;;5060803;28;20416;-43
2021/05/13 03:02:54;;;;;;;5.27;4.47;;;8.80;99.90;;;;;;5060000;28;20408;-44
2021/05/13 03:05:25;;;;;;;5.70;4.57;;;8.80;99.90;;;;;;5059620;28;20426;-44
2021/05/13 03:07:53;;;;;;;5.53;5.03;;;8.70;99.90;;;;;;5059992;28;20463;-44
2021/05/13 03:13:04;;;;;;;6.53;4.93;;;8.60;99.90;;;;;;5059370;28;20423;-44
2021/05/13 03:15:30;;;;;;;5.23;4.73;;;8.60;99.90;;;;;;5059387;28;20439;-44
2021/05/13 03:17:56;;;;;;;5.77;5.27;;;8.60;99.90;;;;;;5060393;28;20894;-44
2021/05/13 03:20:26;;;;;;;5.43;4.93;;;8.50;99.90;;;;;;5059899;28;20490;-44
2021/05/13 03:22:56;;;;;;;6.17;4.60;;;8.50;99.90;;;;;;5060133;28;20248;-44
2021/05/13 03:25:42;;;;;;;5.77;4.90;;;8.50;99.90;;;;;;5059469;28;20701;-44
2021/05/13 03:28:09;;;;;;;5.87;5.37;;;8.40;99.90;;;;;;5059965;28;20933;-44
2021/05/13 03:30:44;;;;;;;7.03;4.63;;;8.40;99.90;;;;;;5059550;28;20420;-44
2021/05/13 03:33:10;;;;;;;6.63;5.23;;;8.40;99.90;;;;;;5060010;28;20423;-44
2021/05/13 03:35:36;;;;;;;9.30;5.23;;;8.30;99.90;;;;;;5059845;28;20416;-44
2021/05/13 03:38:03;;;;;;;5.37;4.87;;;8.30;99.90;;;;;;5059843;28;20443;-44
2021/05/13 03:40:30;;;;;;;7.30;5.63;;;8.20;99.90;;;;;;5059490;28;20513;-44
2021/05/13 03:42:57;;;;;;;6.57;4.60;;;8.20;99.90;;;;;;5058942;28;20412;-44
2021/05/13 03:45:23;;;;;;;6.67;5.60;;;8.20;99.90;;;;;;5059338;28;20514;-44
2021/05/13 03:47:49;;;;;;;5.63;4.97;;;8.20;99.90;;;;;;5059195;28;20463;-44
2021/05/13 03:50:15;;;;;;;5.97;5.47;;;8.20;99.90;;;;;;5059625;28;20429;-44
2021/05/13 03:52:41;;;;;;;7.07;5.17;;;8.10;99.90;;;;;;5059351;28;20180;-44
2021/05/13 03:55:07;;;;;;;7.73;6.37;;;8.10;99.90;;;;;;5059540;28;20423;-44
2021/05/13 03:57:33;;;;;;;8.30;5.53;;;8.20;99.90;;;;;;5059423;28;20416;-44
2021/05/13 04:00:01;;;;;;;5.13;4.73;;;8.20;99.90;;;;;;5057626;28;20726;-44
2021/05/13 04:02:32;;;;;;;8.07;4.77;;;8.20;99.90;;;;;;5058744;28;20672;-44
2021/05/13 04:04:58;;;;;;;6.00;5.03;;;8.20;99.90;;;;;;5058740;28;20424;-43
2021/05/13 04:07:30;;;;;;;5.20;4.80;;;8.20;99.90;;;;;;5059242;28;20476;-44
2021/05/13 04:09:56;;;;;;;7.97;5.33;;;8.20;99.90;;;;;;5058460;28;20479;-44
2021/05/13 04:12:23;;;;;;;12.90;6.00;;;8.30;99.90;;;;;;5059048;28;20849;-44
2021/05/13 04:14:50;;;;;;;8.63;5.70;;;8.30;99.90;;;;;;5058968;28;20524;-44
2021/05/13 04:17:16;;;;;;;6.70;5.63;;;8.40;99.90;;;;;;5059026;28;20447;-44
2021/05/13 04:19:41;;;;;;;6.63;5.20;;;8.50;99.90;;;;;;5057949;28;20876;-44
2021/05/13 04:22:07;;;;;;;8.47;5.30;;;8.50;99.90;;;;;;5058516;28;20181;-42
2021/05/13 04:24:33;;;;;;;8.20;6.50;;;8.60;99.90;;;;;;5059097;28;20194;-44
2021/05/13 04:26:59;;;;;;;7.40;6.37;;;8.70;99.90;;;;;;5058803;28;20415;-44
2021/05/13 04:29:25;;;;;;;7.90;6.40;;;8.80;99.90;;;;;;5058892;28;20513;-43
2021/05/13 04:31:50;;;;;;;8.90;8.00;;;8.90;99.90;;;;;;5058913;28;20408;-44
2021/05/13 04:34:16;;;;;;;7.53;6.90;;;9.00;99.90;;;;;;5057863;28;20247;-44
2021/05/13 04:36:42;;;;;;;6.37;5.77;;;9.10;99.90;;;;;;5058365;28;20174;-44
2021/05/13 04:39:07;;;;;;;6.87;6.20;;;9.20;99.90;;;;;;5058705;28;20182;-44
2021/05/13 04:41:34;;;;;;;6.70;6.10;;;9.30;99.90;;;;;;5058967;28;20177;-43
2021/05/13 04:44:01;;;;;;;7.30;6.60;;;9.40;99.90;;;;;;5057170;28;20186;-43
2021/05/13 04:46:30;;;;;;;7.77;7.03;;;9.60;99.90;;;;;;5058067;28;20689;-44
2021/05/13 04:49:15;;;;;;;8.13;7.20;;;9.70;99.90;;;;;;5058635;28;20471;-44
2021/05/13 04:51:40;;;;;;;10.00;7.50;;;9.70;99.90;;;;;;5056636;28;20405;-44
2021/05/13 04:54:06;;;;;;;6.50;5.90;;;9.70;99.90;;;;;;5056634;28;20492;-43
2021/05/13 04:56:32;;;;;;;7.00;6.33;;;9.80;99.90;;;;;;5055726;28;20424;-44
2021/05/13 04:58:58;;;;;;;7.40;6.70;;;9.90;99.90;;;;;;5054390;28;20310;-44
2021/05/13 05:01:24;;;;;;;8.83;7.80;;;10.00;99.90;;;;;;5054470;28;20181;-43
2021/05/13 05:03:50;;;;;;;11.23;7.20;;;10.10;99.90;;;;;;5055839;28;20185;-44
2021/05/13 05:06:16;;;;;;;9.77;7.47;;;10.20;99.90;;;;;;5057200;28;20451;-44
2021/05/13 05:08:42;;;;;;;8.63;7.60;;;10.30;99.90;;;;;;5056675;28;20804;-44
2021/05/13 05:11:08;;;;;;;11.73;7.73;;;10.40;99.90;;;;;;5056079;28;20409;-44
2021/05/13 05:13:35;;;;;;;8.83;7.90;;;10.50;99.90;;;;;;5057114;28;20905;-44
2021/05/13 05:16:01;;;;;;;8.70;7.90;;;10.60;99.90;;;;;;5057867;28;20568;-44
2021/05/13 05:18:27;;;;;;;9.27;7.70;;;10.80;99.90;;;;;;5056799;28;20841;-44
2021/05/13 05:20:53;;;;;;;8.70;7.70;;;10.90;99.90;;;;;;5057689;28;20445;-44
2021/05/13 05:23:19;;;;;;;10.77;9.00;;;11.10;99.90;;;;;;5056307;28;20240;-43
2021/05/13 05:25:45;;;;;;;8.60;7.80;;;11.20;99.90;;;;;;5057613;28;20413;-45
2021/05/13 05:28:12;;;;;;;7.83;7.13;;;11.30;99.90;;;;;;5057266;28;20900;-44
2021/05/13 05:30:38;;;;;;;8.33;7.57;;;11.40;99.90;;;;;;5056813;28;20734;-44
2021/05/13 05:33:07;;;;;;;8.77;7.97;;;11.40;99.70;;;;;;5057445;28;20730;-44
2021/05/13 05:35:34;;;;;;;9.30;8.47;;;11.40;99.50;;;;;;5056938;28;20400;-42
2021/05/13 05:38:00;;;;;;;8.93;8.07;;;11.40;99.10;;;;;;5056196;28;20496;-44
2021/05/13 05:40:26;;;;;;;9.97;8.90;;;11.40;99.40;;;;;;5056143;28;20404;-44
2021/05/13 05:42:54;;;;;;;9.67;8.77;;;11.40;99.40;;;;;;5056181;28;20408;-44
2021/05/13 05:45:21;;;;;;;11.20;8.37;;;11.60;99.50;;;;;;5056560;28;20687;-44
2021/05/13 05:47:51;;;;;;;8.63;7.73;;;11.70;99.20;;;;;;5056946;28;20745;-44
2021/05/13 05:50:18;;;;;;;12.03;8.70;;;11.90;99.20;;;;;;5056258;28;20439;-44
2021/05/13 05:52:45;;;;;;;9.93;8.87;;;11.80;98.50;;;;;;5057263;28;20446;-44
2021/05/13 05:55:11;;;;;;;8.80;7.70;;;12.00;98.50;;;;;;5039390;28;20427;-42
2021/05/13 05:57:37;;;;;;;8.90;8.10;;;12.20;98.40;;;;;;5057801;28;20416;-44
2021/05/13 06:00:06;;;;;;;9.43;8.60;;;12.30;98.40;;;;;;5057287;28;20428;-44
2021/05/13 06:02:32;;;;;;;9.30;8.50;;;12.50;98.00;;;;;;5057650;28;20471;-44
2021/05/13 06:04:57;;;;;;;8.87;8.07;;;12.60;97.50;;;;;;5057976;28;20436;-43
2021/05/13 06:07:23;;;;;;;8.80;7.90;;;12.20;97.50;;;;;;5057896;28;20205;-43
2021/05/13 06:09:49;;;;;;;9.73;8.67;;;12.40;97.70;;;;;;5057590;28;20253;-44
2021/05/13 06:12:16;;;;;;;9.47;7.03;;;12.60;97.70;;;;;;5056434;28;20423;-44
2021/05/13 06:14:42;;;;;;;8.23;7.43;;;12.70;97.50;;;;;;5057870;28;20423;-44
2021/05/13 06:17:08;;;;;;;8.37;7.57;;;12.80;97.60;;;;;;5056120;28;20427;-44
2021/05/13 06:19:34;;;;;;;8.50;7.50;;;13.00;97.10;;;;;;5056761;28;20424;-44
2021/05/13 06:22:00;;;;;;;7.30;6.60;;;13.20;96.90;;;;;;5058266;28;20713;-45
2021/05/13 06:24:25;;;;;;;9.17;7.77;;;13.40;96.80;;;;;;5061666;28;20217;-44
2021/05/13 06:26:59;;;;;;;8.77;6.93;;;13.60;96.50;;;;;;5062037;28;20166;-44
2021/05/13 06:29:27;;;;;;;9.67;7.50;;;13.80;95.80;;;;;;5062268;28;20272;-44
2021/05/13 06:31:53;;;;;;;11.23;8.20;;;14.00;95.60;;;;;;5061705;28;20410;-44
2021/05/13 06:34:18;;;;;;;7.53;6.43;;;14.20;95.20;;;;;;5061894;28;20507;-44
2021/05/13 06:36:44;;;;;;;8.67;7.77;;;14.30;94.70;;;;;;5060635;28;20464;-44
2021/05/13 06:39:10;;;;;;;10.33;7.07;;;14.20;94.00;;;;;;5061800;28;20182;-44
2021/05/13 06:41:36;;;;;;;6.83;6.13;;;14.40;94.80;;;;;;5061594;28;20178;-44
2021/05/13 06:44:02;;;;;;;7.67;6.97;;;14.60;94.30;;;;;;5062211;28;20443;-44
2021/05/13 06:46:27;;;;;;;7.03;6.30;;;14.80;93.90;;;;;;5061967;28;20173;-44
2021/05/13 06:48:53;;;;;;;7.23;6.40;;;15.00;93.30;;;;;;5061233;28;20555;-43
2021/05/13 06:51:19;;;;;;;6.93;6.33;;;15.20;93.00;;;;;;5060795;28;20211;-45
2021/05/13 06:53:45;;;;;;;8.00;7.07;;;15.40;92.60;;;;;;5061021;28;20176;-44
2021/05/13 06:56:12;;;;;;;8.40;7.60;;;15.20;91.90;;;;;;5061662;28;20413;-43
2021/05/13 06:58:38;;;;;;;7.87;7.17;;;14.90;92.40;;;;;;5060829;28;20531;-44
2021/05/13 07:01:04;;;;;;;8.13;7.33;;;15.00;92.50;;;;;;5061022;28;20440;-44
2021/05/13 07:03:30;;;;;;;6.80;6.20;;;14.70;92.70;;;;;;5061150;28;20177;-44
2021/05/13 07:05:55;;;;;;;7.77;6.53;;;14.70;93.30;;;;;;5061048;28;20412;-44
2021/05/13 07:08:21;;;;;;;7.40;6.70;;;15.00;92.80;;;;;;5061774;28;20912;-44
2021/05/13 07:10:47;;;;;;;9.70;6.70;;;14.70;93.50;;;;;;5060747;28;20638;-44
2021/05/13 07:13:12;;;;;;;7.10;6.43;;;15.20;93.50;;;;;;5062612;28;20185;-44
2021/05/13 07:15:38;;;;;;;6.70;5.97;;;15.70;93.00;;;;;;5061365;28;20185;-44
2021/05/13 07:18:04;;;;;;;6.70;6.00;;;16.00;91.70;;;;;;5060638;28;20331;-44
2021/05/13 07:20:31;;;;;;;7.70;5.93;;;16.20;90.70;;;;;;5060089;28;20174;-44
2021/05/13 07:22:57;;;;;;;7.10;6.10;;;16.30;90.60;;;;;;5059276;28;20483;-44
2021/05/13 07:25:23;;;;;;;6.40;5.60;;;16.40;90.20;;;;;;5059095;28;20420;-44
2021/05/13 07:27:49;;;;;;;5.40;4.90;;;16.50;90.20;;;;;;5060775;28;20719;-44
2021/05/13 07:30:16;;;;;;;7.83;5.93;;;16.70;90.10;;;;;;5059302;28;20490;-44
2021/05/13 07:32:43;;;;;;;7.63;4.97;;;16.90;89.30;;;;;;5042798;28;20790;-45
2021/05/13 07:35:09;;;;;;;6.70;4.93;;;16.90;89.30;;;;;;5059265;28;20515;-43
2021/05/13 07:37:35;;;;;;;4.67;4.17;;;17.30;89.20;;;;;;5059587;28;20451;-44
2021/05/13 07:40:02;;;;;;;5.10;3.80;;;17.50;86.80;;;;;;5058075;28;20870;-42
2021/05/13 07:42:27;;;;;;;6.30;3.60;;;17.60;83.70;;;;;;5059382;28;20182;-43
2021/05/13 07:44:53;;;;;;;4.37;3.50;;;17.50;81.00;;;;;;5059267;28;20439;-43
2021/05/13 07:47:21;;;;;;;3.97;3.57;;;17.50;82.20;;;;;;5059482;28;20202;-42
2021/05/13 07:49:47;;;;;;;3.97;3.37;;;17.90;82.20;;;;;;5060577;28;20265;-43
2021/05/13 07:52:13;;;;;;;6.20;4.00;;;18.00;79.90;;;;;;5057827;28;20492;-45
2021/05/13 07:54:38;;;;;;;4.50;2.53;;;17.10;80.60;;;;;;5059491;28;20706;-44
2021/05/13 07:57:07;;;;;;;3.40;2.70;;;17.60;76.00;;;;;;5059286;28;20435;-44
2021/05/13 07:59:34;;;;;;;5.20;3.03;;;17.90;75.00;;;;;;5059028;28;20178;-45
2021/05/13 08:02:00;;;;;;;3.27;2.43;;;18.10;77.30;;;;;;5059578;28;20420;-44
2021/05/13 08:04:27;;;;;;;4.30;2.10;;;17.70;73.50;;;;;;5059687;28;20424;-44
2021/05/13 08:06:53;;;;;;;5.33;2.43;;;17.90;73.50;;;;;;5060520;28;20416;-44
2021/05/13 08:09:24;;;;;;;4.77;2.00;;;18.40;72.10;;;;;;5059986;28;20754;-46
2021/05/13 08:11:50;;;;;;;2.27;2.07;;;18.60;70.60;;;;;;5058895;28;20443;-45
2021/05/13 08:14:16;;;;;;;3.77;2.30;;;18.20;67.70;;;;;;5059124;28;20432;-44
2021/05/13 08:16:42;;;;;;;2.00;1.70;;;18.40;68.40;;;;;;5058931;28;20702;-44
2021/05/13 08:19:08;;;;;;;2.97;1.60;;;18.80;64.50;;;;;;5042130;28;20185;-43
2021/05/13 08:21:35;;;;;;;2.97;1.83;;;19.60;65.40;;;;;;5058666;28;20588;-44
2021/05/13 08:24:02;;;;;;;2.93;2.20;;;20.10;62.60;;;;;;5059701;28;20559;-44
2021/05/13 08:26:28;;;;;;;3.43;2.07;;;19.70;63.10;;;;;;5058032;28;20687;-45
2021/05/13 08:28:55;;;;;;;3.60;2.00;;;19.20;60.00;;;;;;5057932;28;20483;-44
2021/05/13 08:31:21;;;;;;;2.13;1.67;;;20.00;60.80;;;;;;5041337;28;20413;-43
2021/05/13 08:33:47;;;;;;;2.23;1.23;;;20.40;58.10;;;;;;5041028;28;20432;-43
2021/05/13 08:36:14;;;;;;;3.53;1.73;;;20.30;56.00;;;;;;5041229;28;20182;-44
2021/05/13 08:38:39;;;;;;;2.07;1.03;;;20.60;56.50;;;;;;5059153;28;20710;-44
2021/05/13 08:41:05;;;;;;;1.90;1.30;;;20.90;53.20;;;;;;5059420;28;20412;-44
2021/05/13 08:43:31;;;;;;;4.53;1.60;;;20.30;52.30;;;;;;5059279;28;20600;-44
2021/05/13 08:45:58;;;;;;;3.40;1.40;;;20.20;51.50;;;;;;5058249;28;20856;-44
2021/05/13 08:48:25;;;;;;;3.00;1.90;;;20.80;51.20;;;;;;5055746;28;20566;-44
2021/05/13 08:50:52;;;;;;;2.27;1.60;;;20.00;52.80;;;;;;5056579;28;20566;-45
2021/05/13 08:53:19;;;;;;;3.40;1.90;;;20.90;53.70;;;;;;5054541;28;20424;-45
2021/05/13 08:55:45;;;;;;;2.07;1.27;;;20.70;51.30;;;;;;5056673;28;20471;-44
2021/05/13 08:58:11;;;;;;;2.00;1.30;;;21.20;50.30;;;;;;5055473;28;20475;-43
2021/05/13 09:00:37;;;;;;;2.63;1.37;;;22.00;49.60;;;;;;5056845;28;20181;-45
2021/05/13 09:03:03;;;;;;;2.60;1.20;;;23.00;48.20;;;;;;5056991;28;20178;-45
2021/05/13 09:05:28;;;;;;;2.63;1.73;;;23.70;48.30;;;;;;5057326;28;20432;-38
2021/05/13 09:07:55;;;;;;;2.93;1.70;;;24.10;45.90;;;;;;5057127;28;20456;-38
2021/05/13 09:10:22;;;;;;;3.00;1.50;;;24.10;46.30;;;;;;5039929;28;20174;-38
2021/05/13 09:12:50;;;;;;;3.37;1.73;;;24.10;46.00;;;;;;5057200;28;20744;-36
2021/05/13 09:15:23;;;;;;;3.00;1.37;;;24.10;44.80;;;;;;5056480;28;20420;-38
2021/05/13 09:18:01;;;;;;;2.60;1.10;;;22.10;43.00;;;;;;5057168;28;20408;-37
2021/05/13 09:20:39;;;;;;;2.43;1.40;;;20.60;44.30;;;;;;5056098;28;20450;-37
2021/05/13 09:23:16;;;;;;;1.50;1.23;;;20.30;46.30;;;;;;5056720;28;20757;-36
2021/05/13 09:25:45;;;;;;;4.00;1.73;;;19.20;47.90;;;;;;5057865;28;20530;-37
2021/05/13 09:28:11;;;;;;;3.83;1.97;;;18.70;48.30;;;;;;5057579;28;20503;-36
2021/05/13 09:30:38;;;;;;;4.63;1.70;;;18.10;50.30;;;;;;5040655;28;20478;-37
2021/05/13 09:33:08;;;;;;;2.33;1.60;;;17.80;52.70;;;;;;5055896;28;20511;-38
2021/05/13 09:35:35;;;;;;;2.30;1.33;;;18.20;53.70;;;;;;5058000;28;20420;-36
2021/05/13 09:38:03;;;;;;;1.93;1.33;;;18.30;53.10;;;;;;5060184;28;20430;-38
2021/05/13 09:40:43;;;;;;;2.83;1.30;;;18.20;53.40;;;;;;5059043;28;20442;-37
2021/05/13 09:43:19;;;;;;;3.27;1.57;;;18.30;53.10;;;;;;5054754;28;20470;-37
2021/05/13 09:45:53;;;;;;;1.73;1.10;;;17.40;53.80;;;;;;5054301;28;20463;-37
2021/05/13 09:48:40;;;;;;;2.30;1.33;;;17.30;54.60;;;;;;5037628;28;20675;-38
2021/05/13 09:51:22;;;;;;;2.23;1.47;;;17.40;54.40;;;;;;5056659;28;20400;-37
2021/05/13 09:54:14;;;;;;;4.27;1.90;;;17.30;56.20;;;;;;5055288;28;20916;-36
2021/05/13 09:56:42;;;;;;;2.37;1.80;;;17.50;55.30;;;;;;5056659;28;20408;-36
2021/05/13 09:59:31;;;;;;;3.40;1.50;;;17.70;55.90;;;;;;5055837;28;20546;-37
2021/05/13 10:02:05;;;;;;;3.00;1.63;;;17.80;55.90;;;;;;5054747;28;20834;-37
2021/05/13 10:04:31;;;;;;;2.90;1.60;;;17.70;56.50;;;;;;5056644;28;20438;-36
2021/05/13 10:06:56;;;;;;;3.30;1.97;;;17.10;55.90;;;;;;5056320;28;20965;-36
2021/05/13 10:09:23;;;;;;;2.83;1.73;;;17.30;56.80;;;;;;5055538;28;20653;-37
2021/05/13 10:11:50;;;;;;;2.83;1.47;;;17.60;58.10;;;;;;5055870;28;20428;-37
2021/05/13 10:14:15;;;;;;;2.30;1.40;;;18.00;57.30;;;;;;5039675;28;20873;-36
2021/05/13 10:16:42;;;;;;;1.83;1.23;;;17.20;57.00;;;;;;5055422;28;20412;-36
2021/05/13 10:19:35;;;;;;;3.53;1.50;;;17.30;57.90;;;;;;5056281;28;20563;-37
2021/05/13 10:22:03;;;;;;;3.07;1.53;;;16.60;62.80;;;;;;5051088;28;20710;-38
2021/05/13 10:24:29;;;;;;;2.40;1.67;;;15.80;71.00;;;;;;5055888;28;20464;-36
2021/05/13 10:27:00;;;;;;;2.60;1.20;;;15.70;74.00;;;;;;5056028;28;20509;-35
2021/05/13 10:29:26;;;;;;;2.73;1.27;;;15.20;77.00;;;;;;5056393;28;20623;-37
2021/05/13 10:32:01;;;;;;;1.63;1.10;;;15.40;78.70;;;;;;5056023;28;20452;-37
2021/05/13 10:34:45;;;;;;;2.43;1.30;;;15.60;78.20;;;;;;5057183;28;20427;-37
2021/05/13 10:37:35;;;;;;;2.07;1.10;;;15.40;78.10;;;;;;5056732;28;20489;-37
2021/05/13 10:40:19;;;;;;;2.07;1.23;;;15.30;78.60;;;;;;5057369;28;20447;-37
2021/05/13 10:43:06;;;;;;;1.90;1.47;;;15.50;78.10;;;;;;5056488;28;20421;-38
2021/05/13 10:45:34;;;;;;;3.77;1.27;;;15.20;77.90;;;;;;5056852;28;20426;-38
2021/05/13 10:48:20;;;;;;;2.13;1.00;;;15.70;78.90;;;;;;5056031;28;20714;-35
2021/05/13 10:50:50;;;;;;;2.27;1.67;;;15.60;76.30;;;;;;5057095;28;20424;-38
2021/05/13 10:53:33;;;;;;;6.10;1.20;;;16.20;74.90;;;;;;5056686;28;20412;-38
2021/05/13 10:56:25;;;;;;;2.60;1.37;;;16.30;72.90;;;;;;5055535;28;20432;-37
2021/05/13 10:59:00;;;;;;;4.40;1.70;;;16.30;71.20;;;;;;5055822;28;20441;-37
2021/05/13 11:01:29;;;;;;;4.57;3.27;;;16.50;70.40;;;;;;5056731;28;20420;-37
2021/05/13 11:04:29;;;;;;;2.13;1.30;;;16.60;69.80;;;;;;5056515;28;20493;-37
2021/05/13 11:06:59;;;;;;;1.70;1.07;;;16.00;69.70;;;;;;5056031;28;20907;-36
2021/05/13 11:09:49;;;;;;;2.27;1.43;;;15.60;72.40;;;;;;5057235;28;20568;-36
2021/05/13 11:12:26;;;;;;;6.43;5.40;;;15.90;70.90;;;;;;5059665;28;20833;-37
2021/05/13 11:20:32;;;;;;;4.77;3.30;;;16.30;66.60;;;;;;5060691;28;20764;-38
2021/05/13 11:23:10;;;;;;;1.80;1.37;;;15.90;67.50;;;;;;5059683;28;20471;-37
2021/05/13 11:25:51;;;;;;;2.10;0.90;;;15.40;71.00;;;;;;5060213;28;20424;-38
2021/05/13 11:28:38;;;;;;;1.53;1.10;;;14.70;76.00;;;;;;5060865;28;20468;-37
2021/05/13 11:31:04;;;;;;;2.17;1.20;;;14.80;80.20;;;;;;5059494;28;20427;-37
2021/05/13 11:33:54;;;;;;;1.60;1.20;;;14.90;83.70;;;;;;5059180;28;20420;-36
2021/05/13 11:36:29;;;;;;;2.13;1.10;;;14.80;83.90;;;;;;5060737;28;20420;-37
2021/05/13 11:39:00;;;;;;;2.37;1.20;;;14.90;85.50;;;;;;5060061;28;20411;-36
2021/05/13 11:41:27;;;;;;;4.07;2.37;;;15.10;83.70;;;;;;5059765;28;20408;-41
2021/05/13 11:43:53;;;;;;;1.33;0.77;;;14.60;80.70;;;;;;5059241;28;20404;-36
2021/05/13 11:46:22;;;;;;;1.93;0.93;;;15.00;80.80;;;;;;5058451;28;20427;-36
2021/05/13 11:48:48;;;;;;;3.00;0.90;;;14.90;77.80;;;;;;5059559;28;20455;-36
2021/05/13 11:51:17;;;;;;;1.67;1.00;;;14.80;78.20;;;;;;5060148;28;20451;-36
2021/05/13 11:53:44;;;;;;;3.13;0.83;;;15.10;78.50;;;;;;5059559;28;20530;-36
2021/05/13 11:56:11;;;;;;;2.73;0.90;;;15.30;75.60;;;;;;5059694;28;20411;-35
2021/05/13 11:58:47;;;;;;;1.20;0.77;;;15.70;72.70;;;;;;5059040;28;20424;-36
2021/05/13 12:01:17;;;;;;;1.47;0.80;;;15.80;71.10;;;;;;5059471;28;20416;-36
2021/05/13 12:03:47;;;;;;;2.60;1.20;;;16.10;71.40;;;;;;5057607;28;20435;-36
2021/05/13 12:06:13;;;;;;;2.10;1.10;;;16.50;69.50;;;;;;5059768;28;20714;-37
2021/05/13 12:08:39;;;;;;;2.37;0.77;;;16.50;68.00;;;;;;5059558;28;20459;-37
2021/05/13 12:11:25;;;;;;;2.43;0.90;;;16.20;68.40;;;;;;5059395;28;20178;-37
2021/05/13 12:13:55;;;;;;;1.90;1.00;;;15.90;68.50;;;;;;5065570;28;20173;-36
2021/05/13 12:16:22;;;;;;;2.13;1.00;;;16.10;69.30;;;;;;5051928;28;20538;-37
2021/05/13 12:18:50;;;;;;;1.90;1.03;;;15.60;68.90;;;;;;5060150;28;20424;-37
2021/05/13 12:21:18;;;;;;;2.33;1.07;;;15.90;69.30;;;;;;5058111;28;20447;-36
2021/05/13 12:23:45;;;;;;;3.13;1.20;;;15.80;68.20;;;;;;5059017;28;20518;-36
2021/05/13 12:26:13;;;;;;;1.77;0.60;;;15.60;65.80;;;;;;5058904;28;20430;-36
2021/05/13 12:28:42;;;;;;;0.83;0.60;;;16.00;65.30;;;;;;5059000;28;20464;-36
2021/05/13 12:31:08;;;;;;;1.40;0.70;;;16.20;65.70;;;;;;5057298;28;20701;-36
2021/05/13 12:33:40;;;;;;;1.40;1.03;;;16.10;66.10;;;;;;5058101;28;20412;-36
2021/05/13 12:36:11;;;;;;;2.40;0.83;;;16.10;67.90;;;;;;5058408;28;20556;-36
2021/05/13 12:38:42;;;;;;;1.63;0.90;;;15.70;69.40;;;;;;5042723;28;20525;-36
2021/05/13 12:41:25;;;;;;;3.57;1.20;;;15.70;70.80;;;;;;5039132;28;20421;-38
2021/05/13 12:44:03;;;;;;;1.77;1.40;;;15.50;73.50;;;;;;5069774;28;20420;-36
2021/05/13 12:46:29;;;;;;;1.80;1.13;;;15.60;75.00;;;;;;5038272;28;20417;-37
2021/05/13 12:48:55;;;;;;;2.57;0.87;;;16.20;74.60;;;;;;5037350;28;20460;-37
2021/05/13 12:51:23;;;;;;;4.30;1.30;;;16.60;74.10;;;;;;5037472;28;20178;-37
2021/05/13 12:53:54;;;;;;;1.80;1.07;;;16.30;74.40;;;;;;5069632;28;20202;-36
2021/05/13 12:56:24;;;;;;;1.87;1.27;;;16.70;73.20;;;;;;5037329;28;20429;-36
2021/05/13 12:59:08;;;;;;;2.20;0.97;;;16.70;73.90;;;;;;5070131;28;20405;-36
2021/05/13 13:01:39;;;;;;;2.37;1.10;;;17.00;75.00;;;;;;5069789;28;20440;-36
2021/05/13 13:04:07;;;;;;;1.80;1.20;;;16.80;74.30;;;;;;5037742;28;20520;-34
2021/05/13 13:06:46;;;;;;;2.50;1.00;;;16.30;74.80;;;;;;5037112;28;20526;-35